Bramble, Montserrat

12:31 PM AST on July 28, 2016 (GMT -0400)
Geralds | | Change Station

Elev 551 ft 16.79 °N, 62.19 °W | Updated 31 minutes ago

Partly Cloudy
Partly Cloudy
84 °F
Feels Like 92 °F
N
22
Wind Variable Wind from ESE

Today
High -- | Low -- °F
--% Chance of Precip.
Yesterday
High -- | Low -- °F
Precip. -- in
Pressure 30.01 in
Visibility 6.2 miles
Clouds Few 1900 ft
Heat Index 92 °F
Dew Point 75 °F
Humidity 74%
Rainfall 0.00 in
Snow Depth Not available.
5:47 AM 6:42 PM
Waning Crescent, 31% visible
METAR TRPG 281600Z 12019KT 9999 FEW019 29/24 Q1016
Pressure 30.01 in
Visibility 6.2 miles
Clouds Few 1900 ft
Heat Index 92 °F
Dew Point 75 °F
Humidity 74%
Rainfall 0.00 in
Snow Depth Not available.
5:47 AM 6:42 PM
Waning Crescent, 31% visible
METAR TRPG 281600Z 12019KT 9999 FEW019 29/24 Q1016

10-Day Weather Forecast

No radar image for this location.
×

Almanac

Astronomy

Jul. 28, 2016 Rise Set
Actual Time
Civil Twilight
Nautical Twilight
Astronomical Twilight
Moon
Length of Visible Light
Length of Day
Tomorrow will be .
, % of the Moon is Illuminated

Today's Extremes

Country Highs Country Lows

Community

WunderPhotos

Upload Photos

1,928,147 photos uploaded!

WunderBlog® & News

Nearby

Air Quality

  Air Quality AQ Index Pollutant
Not available.

Snow Depth

Station Depth Elevation

Earthquake Activity

City Distance Mag. Time & Date
Minimum magnitude displayed is 2.5.

Coastal Water Temperatures

Place Temperature

Stations

Nearby Weather Stations

Station Location Temp. Windchill Dew Point Humidity Wind Precip. Elev Updated Type